createdAt,value
2022-08-14T00:02:31.354Z,20.50
2022-08-14T00:05:00.234Z,20.50
2022-08-14T00:07:30.143Z,20.40
2022-08-14T00:10:49.245Z,20.50
2022-08-14T00:12:56.959Z,20.40
2022-08-14T00:15:37.461Z,20.50
2022-08-14T00:18:30.632Z,20.60
2022-08-14T00:21:03.495Z,20.50
2022-08-14T00:23:32.965Z,20.50
2022-08-14T00:26:06.649Z,20.60
2022-08-14T00:28:37.353Z,20.60
2022-08-14T00:31:09.616Z,20.60
2022-08-14T00:33:52.526Z,20.60
2022-08-14T00:36:36.386Z,20.60
2022-08-14T00:39:18.009Z,20.60
2022-08-14T00:41:48.091Z,20.60
2022-08-14T00:44:26.703Z,20.60
2022-08-14T00:47:02.568Z,20.60
2022-08-14T00:49:42.623Z,20.50
2022-08-14T00:52:14.103Z,20.50
2022-08-14T00:54:58.181Z,20.50
2022-08-14T00:57:30.765Z,20.40
2022-08-14T01:00:00.673Z,20.40
2022-08-14T01:02:31.709Z,20.40
2022-08-14T01:05:02.759Z,20.40
2022-08-14T01:07:47.204Z,20.40
2022-08-14T01:10:19.897Z,20.40
2022-08-14T01:12:49.733Z,20.30
2022-08-14T01:15:20.895Z,20.30
2022-08-14T01:18:17.463Z,20.20
2022-08-14T01:21:04.498Z,20.20
2022-08-14T01:23:35.044Z,20.20
2022-08-14T01:26:34.390Z,20.20
2022-08-14T01:29:05.920Z,20.10
2022-08-14T01:31:37.692Z,20.10
2022-08-14T01:35:18.334Z,20.10
2022-08-14T01:36:56.050Z,20.10
2022-08-14T01:39:26.347Z,20.10
2022-08-14T01:41:58.322Z,20.10
2022-08-14T01:44:34.076Z,20.10
2022-08-14T01:47:12.385Z,20.10
2022-08-14T01:50:01.778Z,20.10
2022-08-14T01:52:58.823Z,20.10
2022-08-14T01:55:32.228Z,20.10
2022-08-14T01:58:19.028Z,20.10
2022-08-14T02:00:54.422Z,20.10
2022-08-14T02:03:29.804Z,20.10
2022-08-14T02:05:59.892Z,20.20
2022-08-14T02:08:35.336Z,20.20
2022-08-14T02:11:22.464Z,20.20
2022-08-14T02:13:56.564Z,20.10
2022-08-14T02:16:26.971Z,20.00
2022-08-14T02:18:58.075Z,20.00
2022-08-14T02:21:28.668Z,20.00
2022-08-14T02:24:38.289Z,20.10
2022-08-14T02:28:24.309Z,20.10
2022-08-14T02:29:59.090Z,20.20
2022-08-14T02:32:30.318Z,20.20
2022-08-14T02:35:19.241Z,20.20
2022-08-14T02:37:50.809Z,20.20
2022-08-14T02:40:31.778Z,20.20
2022-08-14T02:43:05.443Z,20.20
2022-08-14T02:45:42.387Z,20.20
2022-08-14T02:49:02.791Z,20.10
2022-08-14T02:51:07.244Z,20.10
2022-08-14T02:53:42.256Z,20.10
2022-08-14T02:56:30.177Z,20.00
2022-08-14T02:59:05.815Z,20.00
2022-08-14T03:01:43.024Z,19.90
2022-08-14T03:04:20.234Z,19.90
2022-08-14T03:06:57.866Z,19.90
2022-08-14T03:10:25.123Z,19.80
2022-08-14T03:12:31.582Z,19.80
2022-08-14T03:15:13.836Z,19.80
2022-08-14T03:17:56.334Z,19.70
2022-08-14T03:20:28.310Z,19.70
2022-08-14T03:23:00.130Z,19.60
2022-08-14T03:25:34.074Z,19.60
2022-08-14T03:28:08.341Z,19.60
2022-08-14T03:30:44.481Z,19.50
2022-08-14T03:33:14.164Z,19.50
2022-08-14T03:36:00.400Z,19.50
2022-08-14T03:39:13.884Z,19.50
2022-08-14T03:41:23.667Z,19.60
2022-08-14T03:43:57.414Z,19.60
2022-08-14T03:46:53.086Z,19.70
2022-08-14T03:49:29.412Z,19.70
2022-08-14T03:52:00.744Z,19.70
2022-08-14T03:54:29.943Z,19.60
2022-08-14T03:57:02.956Z,19.60
2022-08-14T03:59:32.213Z,19.60
2022-08-14T04:02:04.492Z,19.70
2022-08-14T04:04:33.757Z,19.60
2022-08-14T04:07:03.119Z,19.60
2022-08-14T04:09:31.485Z,19.60
2022-08-14T04:11:59.900Z,19.60
2022-08-14T04:14:29.036Z,19.70
2022-08-14T04:16:57.671Z,19.70
2022-08-14T04:19:28.079Z,19.70
2022-08-14T04:22:02.657Z,19.80
2022-08-14T04:24:38.016Z,19.70
2022-08-14T04:27:09.691Z,19.80
2022-08-14T04:29:39.670Z,19.90
2022-08-14T04:32:57.723Z,20.00
2022-08-14T04:34:59.019Z,20.00
2022-08-14T04:37:45.712Z,20.10
2022-08-14T04:40:32.877Z,20.10
2022-08-14T04:43:21.006Z,20.10
2022-08-14T04:45:51.461Z,20.20
2022-08-14T04:48:38.982Z,20.30
2022-08-14T04:51:15.793Z,20.40
2022-08-14T04:53:48.202Z,20.40
2022-08-14T04:56:33.745Z,20.50
2022-08-14T04:59:10.386Z,20.60
2022-08-14T05:01:49.113Z,20.70
2022-08-14T05:04:21.667Z,20.80
2022-08-14T05:06:53.743Z,20.80
2022-08-14T05:09:24.441Z,20.90
2022-08-14T05:12:23.891Z,21.00
2022-08-14T05:14:55.121Z,21.20
2022-08-14T05:17:34.792Z,21.20
2022-08-14T05:21:04.910Z,21.20
2022-08-14T05:23:04.626Z,21.40
2022-08-14T05:25:33.748Z,21.70
2022-08-14T05:28:14.083Z,21.70
2022-08-14T05:30:44.419Z,22.00
2022-08-14T05:33:14.007Z,22.10
2022-08-14T05:35:43.723Z,22.30
2022-08-14T05:38:22.373Z,22.40
2022-08-14T05:41:01.052Z,22.30
2022-08-14T05:43:33.031Z,22.30
2022-08-14T05:46:12.052Z,22.30
2022-08-14T05:48:43.978Z,22.30
2022-08-14T05:51:13.532Z,22.30
2022-08-14T05:53:43.800Z,22.30
2022-08-14T05:56:30.140Z,22.30
2022-08-14T05:59:00.480Z,22.40
2022-08-14T06:01:31.481Z,22.50
2022-08-14T06:04:00.315Z,22.60
2022-08-14T06:06:28.416Z,22.90
2022-08-14T06:08:58.667Z,23.10
2022-08-14T06:11:31.096Z,23.30
2022-08-14T06:14:00.061Z,23.30
2022-08-14T06:16:28.370Z,23.50
2022-08-14T06:18:59.547Z,23.60
2022-08-14T06:21:27.861Z,23.90
2022-08-14T06:23:59.549Z,23.70
2022-08-14T06:26:30.335Z,23.70
2022-08-14T06:28:59.916Z,23.60
2022-08-14T06:31:28.134Z,23.50
2022-08-14T06:35:03.879Z,23.70
2022-08-14T06:36:44.881Z,23.70
2022-08-14T06:39:14.375Z,23.80
2022-08-14T06:41:58.737Z,24.00
2022-08-14T06:44:32.765Z,24.20
2022-08-14T06:47:04.509Z,24.10
2022-08-14T06:49:42.708Z,24.10
2022-08-14T06:52:16.055Z,24.00
2022-08-14T06:54:46.784Z,24.00
2022-08-14T06:57:14.999Z,24.10
2022-08-14T06:59:43.507Z,24.30
2022-08-14T07:02:29.396Z,24.30
2022-08-14T07:05:20.889Z,24.40
2022-08-14T07:07:52.525Z,24.60
2022-08-14T07:10:24.993Z,24.70
2022-08-14T07:13:01.625Z,24.90
2022-08-14T07:15:34.359Z,25.10
2022-08-14T07:18:09.715Z,25.60
2022-08-14T07:20:38.247Z,25.70
2022-08-14T07:23:10.921Z,25.60
2022-08-14T07:25:44.323Z,25.80
2022-08-14T07:28:21.083Z,25.80
2022-08-14T07:30:51.910Z,25.60
2022-08-14T07:33:24.623Z,25.60
2022-08-14T07:36:00.726Z,25.80
2022-08-14T07:38:36.314Z,26.20
2022-08-14T07:41:12.093Z,26.30
2022-08-14T07:43:52.909Z,26.30
2022-08-14T07:46:29.295Z,26.30
2022-08-14T07:48:59.378Z,26.40
2022-08-14T07:51:34.142Z,26.50
2022-08-14T07:54:04.274Z,26.80
2022-08-14T07:56:46.669Z,27.00
2022-08-14T07:59:18.355Z,27.40
2022-08-14T08:01:51.661Z,27.10
2022-08-14T08:04:27.494Z,27.10
2022-08-14T08:06:56.190Z,27.50
2022-08-14T08:09:32.464Z,27.30
2022-08-14T08:12:09.291Z,27.10
2022-08-14T08:14:56.714Z,27.50
2022-08-14T08:17:35.023Z,27.60
2022-08-14T08:20:11.767Z,27.60
2022-08-14T08:22:43.458Z,27.80
2022-08-14T08:25:18.045Z,28.00
2022-08-14T08:27:59.338Z,28.00
2022-08-14T08:30:29.822Z,27.90
2022-08-14T08:33:01.395Z,27.60
2022-08-14T08:35:47.211Z,27.60
2022-08-14T08:39:17.744Z,27.70
2022-08-14T08:41:11.330Z,27.80
2022-08-14T08:43:47.174Z,28.00
2022-08-14T08:46:23.952Z,28.10
2022-08-14T08:51:34.470Z,28.40
2022-08-14T08:54:05.588Z,28.50
2022-08-14T08:56:45.870Z,28.50
2022-08-14T08:59:27.187Z,28.80
2022-08-14T09:02:04.862Z,29.20
2022-08-14T09:04:45.892Z,29.20
2022-08-14T09:07:27.805Z,29.50
2022-08-14T09:09:58.967Z,29.80
2022-08-14T09:12:33.427Z,30.00
2022-08-14T09:15:11.707Z,30.10
2022-08-14T09:17:42.579Z,30.20
2022-08-14T09:20:14.106Z,30.60
2022-08-14T09:22:56.704Z,30.50
2022-08-14T09:26:00.445Z,30.10
2022-08-14T09:28:15.319Z,30.00
2022-08-14T09:30:50.175Z,30.30
2022-08-14T09:33:55.905Z,30.40
2022-08-14T09:36:45.411Z,30.70
2022-08-14T09:39:33.592Z,30.20
2022-08-14T09:42:33.379Z,30.20
2022-08-14T09:45:17.582Z,30.30
2022-08-14T09:47:51.931Z,30.00
2022-08-14T09:50:25.919Z,29.70
2022-08-14T09:52:58.731Z,29.70
2022-08-14T09:55:41.455Z,29.90
2022-08-14T09:58:22.726Z,30.30
2022-08-14T10:00:55.009Z,30.60
2022-08-14T10:03:33.952Z,30.80
2022-08-14T10:06:11.996Z,30.90
2022-08-14T10:08:51.258Z,30.80
2022-08-14T10:11:23.948Z,30.90
2022-08-14T10:13:55.989Z,30.70
2022-08-14T10:16:33.611Z,30.90
2022-08-14T10:19:09.269Z,31.20
2022-08-14T10:21:58.324Z,31.30
2022-08-14T10:24:37.465Z,31.30
2022-08-14T10:27:18.236Z,31.30
2022-08-14T10:29:51.052Z,31.30
2022-08-14T10:32:28.611Z,31.30
2022-08-14T10:35:14.739Z,31.00
2022-08-14T10:37:49.494Z,30.90
2022-08-14T10:40:37.907Z,31.00
2022-08-14T10:43:23.210Z,31.10
2022-08-14T10:46:21.836Z,31.10
2022-08-14T10:49:02.351Z,31.10
2022-08-14T10:51:39.857Z,31.30
2022-08-14T10:54:35.254Z,31.10
2022-08-14T10:57:11.298Z,30.90
2022-08-14T10:59:49.868Z,31.00
2022-08-14T11:02:44.823Z,31.10
2022-08-14T11:05:20.154Z,31.10
2022-08-14T11:08:01.897Z,31.20
2022-08-14T11:10:48.107Z,31.20
2022-08-14T11:13:21.276Z,31.40
2022-08-14T11:15:53.186Z,31.70
2022-08-14T11:18:35.630Z,31.70
2022-08-14T11:21:10.605Z,31.70
2022-08-14T11:23:41.335Z,31.60
2022-08-14T11:26:14.386Z,31.80
2022-08-14T11:28:49.835Z,31.80
2022-08-14T11:31:23.481Z,31.90
2022-08-14T11:33:58.273Z,32.00
2022-08-14T11:36:57.295Z,31.90
2022-08-14T11:39:34.471Z,31.80
2022-08-14T11:43:07.984Z,31.60
2022-08-14T11:45:04.539Z,31.60
2022-08-14T11:47:44.206Z,31.60
2022-08-14T11:50:36.249Z,31.50
2022-08-14T11:53:08.562Z,31.40
2022-08-14T11:55:40.679Z,31.40
2022-08-14T11:58:15.634Z,31.50
2022-08-14T12:00:58.787Z,31.70
2022-08-14T12:03:51.534Z,31.90
2022-08-14T12:06:28.866Z,31.90
2022-08-14T12:09:08.930Z,32.10
2022-08-14T12:11:47.536Z,31.90
2022-08-14T12:14:30.927Z,31.90
2022-08-14T12:17:12.799Z,32.00
2022-08-14T12:19:51.426Z,32.20
2022-08-14T12:22:35.320Z,32.60
2022-08-14T12:25:10.042Z,32.70
2022-08-14T12:27:46.689Z,32.90
2022-08-14T12:30:39.449Z,33.00
2022-08-14T12:33:25.618Z,32.90
2022-08-14T12:35:58.486Z,32.70
2022-08-14T12:38:38.089Z,32.90
2022-08-14T12:41:20.818Z,32.90
2022-08-14T12:43:55.626Z,32.90
2022-08-14T12:46:28.843Z,33.00
2022-08-14T12:48:59.925Z,33.00
2022-08-14T12:51:32.403Z,33.20
2022-08-14T12:54:01.730Z,33.50
2022-08-14T12:56:34.068Z,34.10
2022-08-14T12:59:05.048Z,34.80
2022-08-14T13:01:58.913Z,35.60
2022-08-14T13:04:25.018Z,35.70
2022-08-14T13:06:53.802Z,36.00
2022-08-14T13:09:27.903Z,36.20
2022-08-14T13:12:31.960Z,36.30
2022-08-14T13:15:00.233Z,37.20
2022-08-14T13:17:29.551Z,38.00
2022-08-14T13:22:44.432Z,38.10
2022-08-14T13:25:17.600Z,37.90
2022-08-14T13:27:50.265Z,38.20
2022-08-14T13:30:26.406Z,38.00
2022-08-14T13:32:58.442Z,38.50
2022-08-14T13:35:27.742Z,38.80
2022-08-14T13:37:57.952Z,37.90
2022-08-14T13:40:27.654Z,37.40
2022-08-14T13:42:57.657Z,37.80
2022-08-14T13:45:59.234Z,38.30
2022-08-14T13:48:27.315Z,38.50
2022-08-14T13:51:05.398Z,38.80
2022-08-14T13:54:07.212Z,39.50
2022-08-14T13:56:42.192Z,39.70
2022-08-14T13:59:11.686Z,39.10
2022-08-14T14:01:46.318Z,38.60
2022-08-14T14:04:20.358Z,38.20
2022-08-14T14:06:52.092Z,38.50
2022-08-14T14:09:32.460Z,38.70
2022-08-14T14:12:37.832Z,38.90
2022-08-14T14:15:04.868Z,37.80
2022-08-14T14:17:39.064Z,36.50
2022-08-14T14:20:33.928Z,35.20
2022-08-14T14:23:03.531Z,35.50
2022-08-14T14:25:49.192Z,35.60
2022-08-14T14:28:24.626Z,34.70
2022-08-14T14:30:57.527Z,33.70
2022-08-14T14:33:50.728Z,34.40
2022-08-14T14:36:24.973Z,35.20
2022-08-14T14:38:56.031Z,36.30
2022-08-14T14:41:27.018Z,37.20
2022-08-14T14:44:09.106Z,37.20
2022-08-14T14:46:44.819Z,37.10
2022-08-14T14:49:15.013Z,37.10
2022-08-14T14:51:46.859Z,37.50
2022-08-14T14:54:31.560Z,37.80
2022-08-14T14:57:10.384Z,36.60
2022-08-14T14:59:45.659Z,35.30
2022-08-14T15:02:36.951Z,34.30
2022-08-14T15:05:09.084Z,33.40
2022-08-14T15:07:38.443Z,32.80
2022-08-14T15:10:27.089Z,32.40
2022-08-14T15:13:03.600Z,32.30
2022-08-14T15:15:33.492Z,32.30
2022-08-14T15:18:36.825Z,32.20
2022-08-14T15:20:58.031Z,32.50
2022-08-14T15:23:43.603Z,33.40
2022-08-14T15:26:23.872Z,33.50
2022-08-14T15:29:04.738Z,33.10
2022-08-14T15:31:34.927Z,32.80
2022-08-14T15:34:44.257Z,32.50
2022-08-14T15:37:06.328Z,32.30
2022-08-14T15:39:41.413Z,32.30
2022-08-14T15:42:14.447Z,32.40
2022-08-14T15:44:57.935Z,32.50
2022-08-14T15:47:33.114Z,32.30
2022-08-14T15:50:08.648Z,32.20
2022-08-14T15:52:39.105Z,32.20
2022-08-14T15:55:14.676Z,32.00
2022-08-14T15:58:01.872Z,31.90
2022-08-14T16:00:51.672Z,31.90
2022-08-14T16:03:27.552Z,31.80
2022-08-14T16:06:04.413Z,31.90
2022-08-14T16:08:35.432Z,31.90
2022-08-14T16:11:08.390Z,31.70
2022-08-14T16:13:42.940Z,31.50
2022-08-14T16:16:34.891Z,31.20
2022-08-14T16:19:09.497Z,31.00
2022-08-14T16:22:02.007Z,31.00
2022-08-14T16:24:34.729Z,30.80
2022-08-14T16:27:06.013Z,30.70
2022-08-14T16:29:39.802Z,30.70
2022-08-14T16:32:32.798Z,30.60
2022-08-14T16:35:01.912Z,30.40
2022-08-14T16:37:34.228Z,30.30
2022-08-14T16:40:06.663Z,30.10
2022-08-14T16:43:04.126Z,30.00
2022-08-14T16:45:33.581Z,29.80
2022-08-14T16:48:02.318Z,29.60
2022-08-14T16:50:40.429Z,29.40
2022-08-14T16:53:13.738Z,29.20
2022-08-14T16:55:53.843Z,29.20
2022-08-14T16:58:27.764Z,29.00
2022-08-14T17:01:23.038Z,28.70
2022-08-14T17:04:00.922Z,28.70
2022-08-14T17:06:48.200Z,28.60
2022-08-14T17:09:36.949Z,28.60
2022-08-14T17:12:28.616Z,28.60
2022-08-14T17:15:09.839Z,28.50
2022-08-14T17:17:50.015Z,28.40
2022-08-14T17:20:53.972Z,28.30
2022-08-14T17:23:17.026Z,28.20
2022-08-14T17:25:49.376Z,28.10
2022-08-14T17:28:50.649Z,28.00
2022-08-14T17:31:12.703Z,28.00
2022-08-14T17:33:44.512Z,27.90
2022-08-14T17:36:24.022Z,27.80
2022-08-14T17:39:00.532Z,27.70
2022-08-14T17:41:43.916Z,27.60
2022-08-14T17:44:33.907Z,27.50
2022-08-14T17:47:10.539Z,27.40
2022-08-14T17:49:52.233Z,27.40
2022-08-14T17:52:35.958Z,27.30
2022-08-14T17:56:01.110Z,27.30
2022-08-14T17:58:02.135Z,27.10
2022-08-14T18:00:57.470Z,27.10
2022-08-14T18:03:50.891Z,27.00
2022-08-14T18:06:39.103Z,27.00
2022-08-14T18:09:25.159Z,27.00
2022-08-14T18:11:57.113Z,26.80
2022-08-14T18:14:32.809Z,26.90
2022-08-14T18:17:20.528Z,26.80
2022-08-14T18:19:53.152Z,26.70
2022-08-14T18:22:32.943Z,26.60
2022-08-14T18:25:18.379Z,26.50
2022-08-14T18:27:51.675Z,26.40
2022-08-14T18:30:33.512Z,26.30
2022-08-14T18:33:23.819Z,26.30
2022-08-14T18:35:58.214Z,26.40
2022-08-14T18:38:45.713Z,26.40
2022-08-14T18:41:36.302Z,26.30
2022-08-14T18:44:10.167Z,26.30
2022-08-14T18:47:22.015Z,26.20
2022-08-14T18:50:27.579Z,26.10
2022-08-14T18:53:09.148Z,26.10
2022-08-14T18:55:54.063Z,26.20
2022-08-14T18:58:30.387Z,26.20
2022-08-14T19:01:06.289Z,26.00
2022-08-14T19:03:59.561Z,25.90
2022-08-14T19:06:56.155Z,25.90
2022-08-14T19:09:56.404Z,25.90
2022-08-14T19:13:04.789Z,25.80
2022-08-14T19:15:36.641Z,25.70
2022-08-14T19:18:26.670Z,25.60
2022-08-14T19:20:59.818Z,25.40
2022-08-14T19:23:41.992Z,25.30
2022-08-14T19:26:35.406Z,25.20
2022-08-14T19:29:35.896Z,25.10
2022-08-14T19:32:26.868Z,25.10
2022-08-14T19:34:59.944Z,25.20
2022-08-14T19:37:48.478Z,25.20
2022-08-14T19:40:33.833Z,25.20
2022-08-14T19:43:06.501Z,25.30
2022-08-14T19:45:39.281Z,25.20
2022-08-14T19:48:15.596Z,25.10
2022-08-14T19:50:47.230Z,25.10
2022-08-14T19:53:17.944Z,25.10
2022-08-14T19:56:00.625Z,25.10
2022-08-14T19:58:54.058Z,25.00
2022-08-14T20:01:37.440Z,24.90
2022-08-14T20:04:46.195Z,24.90
2022-08-14T20:07:04.361Z,24.80
2022-08-14T20:11:08.125Z,24.70
2022-08-14T20:12:36.387Z,24.70
2022-08-14T20:15:21.202Z,24.60
2022-08-14T20:17:52.515Z,24.40
2022-08-14T20:20:30.878Z,24.40
2022-08-14T20:23:11.558Z,24.40
2022-08-14T20:25:55.777Z,24.30
2022-08-14T20:28:35.732Z,24.20
2022-08-14T20:31:17.652Z,24.10
2022-08-14T20:34:06.860Z,24.10
2022-08-14T20:36:40.573Z,24.20
2022-08-14T20:39:15.435Z,24.20
2022-08-14T20:41:48.892Z,24.20
2022-08-14T20:44:39.038Z,24.20
2022-08-14T20:47:08.118Z,24.20
2022-08-14T20:49:37.317Z,24.10
2022-08-14T20:52:18.933Z,24.00
2022-08-14T20:54:51.857Z,23.80
2022-08-14T20:57:20.841Z,23.70
2022-08-14T20:59:57.376Z,23.60
2022-08-14T21:02:46.306Z,23.50
2022-08-14T21:05:22.506Z,23.60
2022-08-14T21:08:09.864Z,23.50
2022-08-14T21:10:55.118Z,23.50
2022-08-14T21:14:20.035Z,23.40
2022-08-14T21:16:34.198Z,23.20
2022-08-14T21:19:05.552Z,23.20
2022-08-14T21:21:41.462Z,23.10
2022-08-14T21:24:38.502Z,23.00
2022-08-14T21:27:13.241Z,23.00
2022-08-14T21:29:54.256Z,23.00
2022-08-14T21:32:47.271Z,22.90
2022-08-14T21:35:22.832Z,22.80
2022-08-14T21:37:52.530Z,22.80
2022-08-14T21:40:42.146Z,22.70
2022-08-14T21:43:18.584Z,22.60
2022-08-14T21:45:53.799Z,22.60
2022-08-14T21:48:26.538Z,22.50
2022-08-14T21:51:53.756Z,22.50
2022-08-14T21:54:00.209Z,22.40
2022-08-14T21:56:38.435Z,22.40
2022-08-14T21:59:17.832Z,22.30
2022-08-14T22:02:00.304Z,22.30
2022-08-14T22:04:40.321Z,22.20
2022-08-14T22:07:16.939Z,22.20
2022-08-14T22:09:55.032Z,22.10
2022-08-14T22:12:58.667Z,22.00
2022-08-14T22:15:18.008Z,21.90
2022-08-14T22:17:52.505Z,21.90
2022-08-14T22:20:28.136Z,21.80
2022-08-14T22:23:02.996Z,21.80
2022-08-14T22:25:41.384Z,21.80
2022-08-14T22:28:19.280Z,21.70
2022-08-14T22:30:54.950Z,21.60
2022-08-14T22:33:31.017Z,21.60
2022-08-14T22:36:00.880Z,21.60
2022-08-14T22:38:35.652Z,21.60
2022-08-14T22:41:27.838Z,21.50
2022-08-14T22:43:59.482Z,21.50
2022-08-14T22:46:28.070Z,21.50
2022-08-14T22:48:57.518Z,21.50
2022-08-14T22:51:27.653Z,21.60
2022-08-14T22:53:59.927Z,21.70
2022-08-14T22:56:30.451Z,21.80
2022-08-14T22:59:01.671Z,21.90
2022-08-14T23:01:56.374Z,21.90
2022-08-14T23:04:35.985Z,22.00
2022-08-14T23:07:22.560Z,21.90
2022-08-14T23:09:56.362Z,21.80
2022-08-14T23:12:31.462Z,21.80
2022-08-14T23:15:00.974Z,21.80
2022-08-14T23:17:38.960Z,21.90
2022-08-14T23:20:19.014Z,21.90
2022-08-14T23:22:51.302Z,21.90
2022-08-14T23:25:56.812Z,21.80
2022-08-14T23:28:34.845Z,21.90
2022-08-14T23:31:09.200Z,21.80
2022-08-14T23:33:45.757Z,21.80
2022-08-14T23:36:32.889Z,21.70
2022-08-14T23:39:12.237Z,21.70
2022-08-14T23:41:46.242Z,21.80
2022-08-14T23:44:23.525Z,21.80
2022-08-14T23:46:56.832Z,21.70
2022-08-14T23:49:56.687Z,21.70
2022-08-14T23:52:50.647Z,21.70
2022-08-14T23:55:11.304Z,21.60
2022-08-14T23:57:43.931Z,21.50
